Time;durP1;ratioP1;P1;durP2;ratioP2;P2;SDS_P1;SDS_P2;PMS_P1;PMS_P2;Temp;Humidity;BMP_temperature;BMP_pressure;BME280_temperature;BME280_humidity;BME280_pressure;Samples;Min_cycle;Max_cycle;Signal;HPM_P1;HPM_P2
2022/06/10 00:00:31;;;;;;;2.95;2.00;;;;;;;19.81;55.64;93091.56;5066376;28;20300;-74
2022/06/10 00:02:56;;;;;;;2.85;2.25;;;;;;;20.00;55.61;93115.41;5060526;28;20028;-74
2022/06/10 00:05:25;;;;;;;3.08;2.40;;;;;;;20.01;56.03;93123.13;5073147;28;20336;-74
2022/06/10 00:07:51;;;;;;;7.45;3.60;;;;;;;20.02;55.32;93108.50;5063835;28;20036;-74
2022/06/10 00:10:20;;;;;;;4.47;3.17;;;;;;;20.02;56.10;93111.19;5063119;28;20036;-73
2022/06/10 00:12:47;;;;;;;8.00;4.03;;;;;;;20.04;56.25;93100.00;5064704;28;20037;-73
2022/06/10 00:15:13;;;;;;;4.10;3.22;;;;;;;20.06;56.59;93100.38;5059968;28;20013;-74
2022/06/10 00:17:39;;;;;;;6.22;2.70;;;;;;;19.99;56.61;93098.47;5065760;28;20028;-73
2022/06/10 00:20:06;;;;;;;5.10;2.90;;;;;;;19.95;56.85;93094.22;5064606;28;20056;-73
2022/06/10 00:22:31;;;;;;;4.05;3.53;;;;;;;19.98;56.74;93099.63;5062503;28;20051;-74
2022/06/10 00:24:57;;;;;;;3.88;3.10;;;;;;;19.72;56.76;93092.72;5064570;28;20040;-74
2022/06/10 00:27:22;;;;;;;4.07;3.15;;;;;;;19.68;57.13;93097.38;5065969;28;20385;-73
2022/06/10 00:29:48;;;;;;;5.57;3.50;;;;;;;19.72;57.09;93098.13;5066920;28;20446;-74
2022/06/10 00:32:14;;;;;;;4.22;2.97;;;;;;;19.82;57.01;93095.78;5063131;28;20036;-74
2022/06/10 00:34:40;;;;;;;5.25;3.13;;;;;;;19.75;57.00;93086.56;5065608;28;20134;-74
2022/06/10 00:37:06;;;;;;;3.85;2.92;;;;;;;19.89;56.67;93093.09;5063461;28;20036;-74
2022/06/10 00:39:34;;;;;;;4.40;3.75;;;;;;;19.83;56.79;93081.16;5065610;28;20396;-74
2022/06/10 00:42:00;;;;;;;4.28;3.17;;;;;;;19.89;56.87;93091.19;5065861;28;20041;-73
2022/06/10 00:44:38;;;;;;;8.00;3.45;;;;;;;19.90;56.98;93083.81;5062574;28;20371;-74
2022/06/10 00:47:16;;;;;;;7.68;4.32;;;;;;;19.86;56.85;93085.75;5068136;28;20632;-74
2022/06/10 00:49:47;;;;;;;15.50;6.50;;;;;;;19.88;56.91;93084.22;5067788;28;20053;-74
2022/06/10 00:52:22;;;;;;;16.73;7.35;;;;;;;19.79;56.54;93075.00;5068268;28;20040;-73
2022/06/10 00:54:51;;;;;;;10.52;4.38;;;;;;;19.86;56.90;93080.38;5068752;28;20097;-75
2022/06/10 00:57:21;;;;;;;6.28;4.00;;;;;;;19.86;56.44;93080.38;5069997;28;20044;-74
2022/06/10 00:59:49;;;;;;;4.20;3.33;;;;;;;19.42;56.50;93019.53;5071259;28;20074;-73
2022/06/10 01:02:18;;;;;;;3.88;3.22;;;;;;;19.64;56.10;93075.03;5069175;28;20036;-74
2022/06/10 01:04:43;;;;;;;8.80;3.38;;;;;;;19.18;57.38;93085.00;5070067;28;20032;-74
2022/06/10 01:07:10;;;;;;;4.10;2.53;;;;;;;19.33;57.00;93081.16;5067787;28;20028;-74
2022/06/10 01:09:36;;;;;;;2.55;2.17;;;;;;;19.40;56.77;93077.72;5067217;28;20032;-74
2022/06/10 01:12:22;;;;;;;10.63;2.67;;;;;;;19.26;57.51;93086.56;5067732;28;20088;-74
2022/06/10 01:15:04;;;;;;;5.32;2.72;;;;;;;19.36;57.21;93064.22;5071855;28;20020;-73
2022/06/10 01:17:43;;;;;;;5.03;2.78;;;;;;;19.43;56.81;93079.63;5069446;28;20043;-72
2022/06/10 01:20:15;;;;;;;4.93;2.78;;;;;;;19.39;56.61;93090.41;5068920;28;20028;-74
2022/06/10 01:23:07;;;;;;;3.03;2.58;;;;;;;19.14;57.41;93079.63;5067292;28;20124;-74
2022/06/10 01:26:18;;;;;;;3.13;2.35;;;;;;;19.24;57.27;93078.09;5074946;28;20049;-74
2022/06/10 01:28:46;;;;;;;4.55;2.75;;;;;;;19.01;58.02;93080.38;5064640;28;20059;-74
2022/06/10 01:31:27;;;;;;;7.28;3.13;;;;;;;19.09;58.26;93087.31;5066344;28;20024;-73
2022/06/10 01:34:05;;;;;;;2.97;2.58;;;;;;;19.23;57.95;93084.63;5078328;28;20032;-74
2022/06/10 01:36:44;;;;;;;3.30;2.78;;;;;;;19.30;57.67;93082.72;5067159;28;20060;-73
2022/06/10 01:39:41;;;;;;;4.28;2.72;;;;;;;19.39;57.31;93090.41;5067271;28;20271;-74
2022/06/10 01:42:25;;;;;;;3.47;2.65;;;;;;;19.44;57.25;93091.97;5048424;28;20500;-74
2022/06/10 01:44:54;;;;;;;3.97;3.00;;;;;;;19.50;57.26;93077.75;5066641;28;20021;-74
2022/06/10 01:47:58;;;;;;;5.40;3.10;;;;;;;19.56;56.89;93083.50;5069700;28;20148;-73
2022/06/10 01:50:27;;;;;;;3.58;2.58;;;;;;;19.54;56.86;93091.22;5055945;28;20078;-74
2022/06/10 01:53:00;;;;;;;3.78;2.88;;;;;;;19.44;56.69;93071.16;5067409;28;20029;-74
2022/06/10 01:55:30;;;;;;;4.90;2.78;;;;;;;19.59;56.66;93086.19;5064857;28;20077;-74
2022/06/10 01:58:24;;;;;;;3.20;2.75;;;;;;;19.59;56.80;93088.91;5065597;28;20494;-72
2022/06/10 02:00:55;;;;;;;5.03;2.60;;;;;;;19.59;56.89;93090.81;5066507;28;20433;-74
2022/06/10 02:03:39;;;;;;;3.22;2.53;;;;;;;19.63;56.96;93089.66;5065509;28;20024;-75
2022/06/10 02:06:18;;;;;;;4.97;2.60;;;;;;;19.58;56.66;93084.66;5066325;28;20476;-74
2022/06/10 02:08:49;;;;;;;6.60;2.78;;;;;;;19.40;57.46;93099.28;5067720;28;20426;-74
2022/06/10 02:11:17;;;;;;;3.50;2.65;;;;;;;19.39;57.56;93093.13;5069372;28;20642;-73
2022/06/10 02:13:59;;;;;;;3.60;2.03;;;;;;;19.48;57.93;93081.97;5066520;28;20534;-74
2022/06/10 02:16:32;;;;;;;3.42;2.92;;;;;;;19.54;57.84;93085.81;5047138;28;20564;-74
2022/06/10 02:19:06;;;;;;;3.03;2.53;;;;;;;19.53;57.78;93090.44;5054884;28;20534;-74
2022/06/10 02:21:41;;;;;;;3.47;2.78;;;;;;;19.50;58.05;93085.84;5062688;28;20055;-72
2022/06/10 02:24:14;;;;;;;2.88;2.53;;;;;;;19.50;58.15;93091.22;5068194;28;20016;-74
2022/06/10 02:26:40;;;;;;;3.28;2.75;;;;;;;19.43;58.19;93090.41;5047957;28;20037;-74
2022/06/10 02:29:12;;;;;;;5.35;2.83;;;;;;;19.49;58.26;93099.69;5056846;28;20189;-73
2022/06/10 02:31:47;;;;;;;3.33;2.63;;;;;;;19.31;59.16;93094.28;5060429;28;20040;-74
2022/06/10 02:34:13;;;;;;;4.00;2.28;;;;;;;19.47;58.66;93105.47;5066879;28;20498;-73
2022/06/10 02:36:41;;;;;;;3.67;2.65;;;;;;;19.59;58.77;93105.09;5066851;28;20113;-74
2022/06/10 02:39:23;;;;;;;4.45;2.40;;;;;;;19.51;58.70;93090.03;5075028;28;20028;-73
2022/06/10 02:41:55;;;;;;;3.95;3.30;;;;;;;19.55;58.62;93115.09;5067003;28;20394;-74
2022/06/10 02:44:43;;;;;;;3.50;2.72;;;;;;;19.56;58.75;93105.84;5066610;28;20032;-72
2022/06/10 02:47:15;;;;;;;3.75;2.78;;;;;;;19.60;58.95;93105.84;5055471;28;20047;-75
2022/06/10 02:49:41;;;;;;;4.00;3.28;;;;;;;19.61;59.27;93115.47;5064591;28;20039;-76
2022/06/10 02:52:13;;;;;;;2.40;1.90;;;;;;;19.53;58.31;93112.00;5067509;28;20033;-76
2022/06/10 02:54:41;;;;;;;3.88;2.65;;;;;;;19.56;58.16;93111.22;5067542;28;20473;-77
2022/06/10 03:01:11;;;;;;;4.45;2.20;;;;;;;19.57;58.02;93117.41;5067827;28;20023;-76
2022/06/10 03:03:34;;;;;;;3.20;2.65;;;;;;;19.53;58.81;93114.72;5067363;28;20521;-76
2022/06/10 03:06:15;;;;;;;3.50;2.67;;;;;;;19.54;58.82;93118.97;5055646;28;20213;-75
2022/06/10 03:08:49;;;;;;;4.63;3.50;;;;;;;19.54;58.79;93113.56;5066483;28;20020;-75
2022/06/10 03:11:37;;;;;;;4.13;2.80;;;;;;;19.56;58.67;93116.63;5065264;28;20036;-75
2022/06/10 03:14:30;;;;;;;5.18;2.85;;;;;;;19.54;58.63;93113.56;5068369;28;20036;-76
2022/06/10 03:17:20;;;;;;;4.00;2.72;;;;;;;19.54;58.58;93118.97;5066860;28;20098;-76
2022/06/10 03:20:04;;;;;;;3.75;2.70;;;;;;;19.53;58.85;93122.81;5067251;28;20529;-74
2022/06/10 03:23:06;;;;;;;4.10;2.25;;;;;;;19.58;58.65;93114.31;5065648;28;20219;-75
2022/06/10 03:25:48;;;;;;;2.97;2.53;;;;;;;19.48;59.16;93117.78;5066832;28;20451;-76
2022/06/10 03:28:28;;;;;;;2.90;2.17;;;;;;;19.52;59.09;93118.56;5066968;28;20127;-74
2022/06/10 03:30:53;;;;;;;3.45;2.63;;;;;;;19.53;58.93;93122.03;5066816;28;20040;-75
2022/06/10 03:33:23;;;;;;;4.82;2.78;;;;;;;19.49;59.02;93116.66;5066643;28;20036;-76
2022/06/10 03:36:11;;;;;;;3.85;2.75;;;;;;;19.31;59.81;93111.19;5066249;28;20489;-75
2022/06/10 03:38:46;;;;;;;3.80;2.63;;;;;;;19.43;59.96;93123.53;5066185;28;20039;-75
2022/06/10 03:41:30;;;;;;;6.80;2.80;;;;;;;19.40;59.98;93127.00;5059841;28;20033;-76
2022/06/10 03:43:58;;;;;;;11.85;3.70;;;;;;;19.40;60.53;93124.31;5065437;28;20117;-76
2022/06/10 03:46:26;;;;;;;4.93;3.67;;;;;;;19.45;60.27;93123.97;5065807;28;20103;-75
2022/06/10 03:48:54;;;;;;;4.03;3.33;;;;;;;19.42;60.25;93127.38;5068861;28;20089;-76
2022/06/10 03:51:21;;;;;;;5.20;4.00;;;;;;;19.41;60.06;93131.22;5065461;28;20390;-76
2022/06/10 03:53:47;;;;;;;4.40;3.50;;;;;;;19.43;60.39;93139.72;5064796;28;20028;-76
2022/06/10 03:56:19;;;;;;;4.10;3.25;;;;;;;19.22;59.99;93123.50;5065360;28;20116;-76
2022/06/10 03:58:44;;;;;;;6.70;3.85;;;;;;;19.35;60.16;93137.41;5067628;28;20066;-76
2022/06/10 04:01:10;;;;;;;4.90;4.05;;;;;;;19.31;60.22;93132.03;5062963;28;20624;-75
2022/06/10 04:03:36;;;;;;;5.50;4.07;;;;;;;19.37;60.57;93135.09;5065387;28;20836;-76
2022/06/10 04:06:01;;;;;;;5.88;4.40;;;;;;;19.38;60.62;93137.41;5065807;28;20375;-75
2022/06/10 04:08:27;;;;;;;7.13;5.00;;;;;;;19.48;60.68;93144.75;5066162;28;20028;-75
2022/06/10 04:10:52;;;;;;;5.65;4.97;;;;;;;19.42;60.86;93142.78;5066051;28;20525;-75
2022/06/10 04:13:20;;;;;;;5.60;3.55;;;;;;;19.41;60.76;93139.31;5063560;28;20037;-76
2022/06/10 04:15:45;;;;;;;3.42;3.00;;;;;;;19.46;61.05;93143.59;5064492;28;20426;-75
2022/06/10 04:18:11;;;;;;;4.53;3.67;;;;;;;19.51;61.03;93149.38;5065056;28;20086;-75
2022/06/10 04:20:38;;;;;;;6.10;3.60;;;;;;;19.53;60.84;93138.22;5065074;28;20205;-76
2022/06/10 04:23:05;;;;;;;4.40;3.40;;;;;;;19.55;60.51;93144.78;5065759;28;20557;-76
2022/06/10 04:25:33;;;;;;;4.75;3.58;;;;;;;19.50;60.13;93134.38;5063182;28;20106;-75
2022/06/10 04:27:58;;;;;;;3.83;2.58;;;;;;;19.48;60.04;93125.09;5065840;28;20024;-76
2022/06/10 04:30:30;;;;;;;5.18;3.60;;;;;;;19.54;60.35;93132.44;5063100;28;20054;-75
2022/06/10 04:32:56;;;;;;;3.72;3.00;;;;;;;19.46;60.27;93133.56;5067269;28;20021;-76
2022/06/10 04:35:23;;;;;;;6.60;3.20;;;;;;;19.26;60.82;93114.28;5065216;28;20062;-76
2022/06/10 04:37:50;;;;;;;4.53;3.10;;;;;;;19.41;60.56;93141.28;5065368;28;20040;-76
2022/06/10 04:40:18;;;;;;;4.80;3.13;;;;;;;19.28;61.00;93143.56;5059425;28;20035;-77
2022/06/10 04:42:47;;;;;;;3.95;3.40;;;;;;;18.90;62.95;93136.94;5065506;28;20701;-76
2022/06/10 04:45:15;;;;;;;5.25;3.80;;;;;;;18.98;63.26;93146.56;5066232;28;20019;-76
2022/06/10 04:47:41;;;;;;;5.15;3.83;;;;;;;18.62;63.94;93128.75;5064257;28;20074;-76
2022/06/10 04:50:08;;;;;;;5.82;4.20;;;;;;;18.79;64.76;93145.00;5066278;28;20454;-75
2022/06/10 04:52:34;;;;;;;7.13;4.35;;;;;;;18.88;64.31;93137.31;5065810;28;20080;-75
2022/06/10 04:55:00;;;;;;;7.20;4.40;;;;;;;18.93;63.98;93149.66;5065138;28;20032;-75
2022/06/10 04:57:26;;;;;;;7.90;3.97;;;;;;;18.82;63.48;93149.59;5062984;28;20167;-75
2022/06/10 04:59:51;;;;;;;8.50;4.65;;;;;;;18.64;64.63;93159.53;5065582;28;20087;-75
2022/06/10 05:02:17;;;;;;;6.22;5.15;;;;;;;18.10;66.22;93152.34;5063976;28;20081;-76
2022/06/10 05:04:42;;;;;;;6.10;5.10;;;;;;;17.87;67.99;93166.03;5066692;28;20079;-76
2022/06/10 05:07:08;;;;;;;7.15;5.10;;;;;;;18.24;67.63;93167.78;5064568;28;20036;-75
2022/06/10 05:09:33;;;;;;;6.75;5.07;;;;;;;18.37;66.96;93160.97;5064708;28;20060;-76
2022/06/10 05:11:58;;;;;;;5.85;4.80;;;;;;;18.43;66.93;93162.16;5067933;28;20567;-75
2022/06/10 05:14:24;;;;;;;6.25;3.85;;;;;;;18.22;66.42;93153.97;5065644;28;20074;-75
2022/06/10 05:16:49;;;;;;;5.25;4.32;;;;;;;18.19;66.78;93168.16;5065077;28;20042;-75
2022/06/10 05:19:15;;;;;;;7.72;4.60;;;;;;;18.53;66.13;93166.03;5066249;28;20415;-75
2022/06/10 05:21:41;;;;;;;9.52;4.93;;;;;;;18.63;66.09;93163.38;5061918;28;20032;-76
2022/06/10 05:24:06;;;;;;;7.57;4.35;;;;;;;18.55;66.19;93152.94;5063447;28;20059;-75
2022/06/10 05:26:32;;;;;;;8.38;4.40;;;;;;;18.62;66.83;93179.94;5064167;28;20540;-76
2022/06/10 05:28:59;;;;;;;8.50;4.90;;;;;;;18.34;67.62;93183.22;5064850;28;20058;-76
2022/06/10 05:31:25;;;;;;;9.23;5.38;;;;;;;17.88;68.77;93177.56;5064252;28;20043;-74
2022/06/10 05:36:34;;;;;;;6.68;4.50;;;;;;;17.17;70.62;93193.84;5069489;28;20325;-75
2022/06/10 05:39:00;;;;;;;4.45;3.83;;;;;;;17.54;70.31;93190.34;5069514;28;20425;-75
2022/06/10 05:44:10;;;;;;;5.95;4.43;;;;;;;17.57;70.48;93190.38;5068067;28;20043;-76
2022/06/10 05:46:35;;;;;;;7.85;5.20;;;;;;;17.14;72.26;93177.69;5065871;28;20036;-75
2022/06/10 05:49:01;;;;;;;6.57;4.75;;;;;;;17.16;72.05;93181.53;5066620;28;20064;-75
2022/06/10 05:51:27;;;;;;;7.30;5.35;;;;;;;17.23;72.16;93166.63;5067752;28;20079;-75
2022/06/10 05:53:52;;;;;;;9.00;5.45;;;;;;;17.40;72.60;93184.84;5068705;28;20024;-76
2022/06/10 05:56:18;;;;;;;7.38;4.75;;;;;;;17.26;71.87;93169.34;5067312;28;20029;-75
2022/06/10 05:58:43;;;;;;;6.90;5.18;;;;;;;17.68;71.95;93190.47;5066440;28;20587;-75
2022/06/10 06:01:09;;;;;;;6.28;4.82;;;;;;;17.41;72.51;93172.94;5067679;28;20039;-74
2022/06/10 06:03:34;;;;;;;7.13;5.03;;;;;;;17.43;72.42;93194.84;5065886;28;20040;-75
2022/06/10 06:06:00;;;;;;;5.78;4.70;;;;;;;17.26;73.29;93200.84;5067708;28;20034;-75
2022/06/10 06:08:25;;;;;;;6.65;4.60;;;;;;;17.35;73.29;93196.72;5066882;28;20119;-76
2022/06/10 06:10:51;;;;;;;7.45;5.00;;;;;;;17.28;74.31;93193.19;5066096;28;20056;-74
2022/06/10 06:13:16;;;;;;;7.80;6.00;;;;;;;17.02;74.33;93186.75;5066997;28;20038;-75
2022/06/10 06:15:41;;;;;;;7.72;4.70;;;;;;;16.71;75.38;93195.25;5067207;28;20044;-76
2022/06/10 06:18:08;;;;;;;12.40;5.07;;;;;;;16.70;75.25;93197.16;5067060;28;20478;-76
2022/06/10 06:20:34;;;;;;;9.05;5.20;;;;;;;16.75;75.31;93196.81;5067481;28;20055;-76
2022/06/10 06:22:59;;;;;;;4.78;4.18;;;;;;;17.05;74.36;93180.66;5066447;28;20036;-76
2022/06/10 06:25:25;;;;;;;6.25;4.22;;;;;;;17.15;74.52;93209.56;5065510;28;20511;-76
2022/06/10 06:27:50;;;;;;;5.68;4.45;;;;;;;17.26;73.52;93212.34;5066766;28;20033;-76
2022/06/10 06:30:20;;;;;;;6.75;4.90;;;;;;;17.13;73.38;93214.53;5064895;28;20258;-75
2022/06/10 06:32:46;;;;;;;7.15;4.80;;;;;;;17.27;74.04;93223.88;5066232;28;20024;-74
2022/06/10 06:35:12;;;;;;;7.03;4.45;;;;;;;17.23;73.29;93174.69;5066337;28;20035;-75
2022/06/10 06:37:38;;;;;;;7.63;5.78;;;;;;;16.94;74.33;93217.38;5065421;28;20028;-74
2022/06/10 06:40:04;;;;;;;9.68;6.90;;;;;;;16.52;75.67;93200.75;5067187;28;20107;-75
2022/06/10 06:42:29;;;;;;;10.02;6.60;;;;;;;16.28;76.52;93202.72;5064203;28;20044;-75
2022/06/10 06:44:54;;;;;;;8.52;6.00;;;;;;;16.70;76.59;93215.16;5066540;28;20082;-76
2022/06/10 06:47:20;;;;;;;8.85;6.70;;;;;;;16.38;76.36;93200.59;5066239;28;20480;-75
2022/06/10 06:49:45;;;;;;;10.38;6.72;;;;;;;16.68;76.41;93204.78;5065401;28;20163;-76
2022/06/10 06:52:10;;;;;;;11.13;6.88;;;;;;;16.49;76.79;93212.22;5068188;28;20047;-74
2022/06/10 06:54:37;;;;;;;9.45;6.95;;;;;;;16.52;77.30;93227.59;5065983;28;20040;-76
2022/06/10 06:57:04;;;;;;;10.57;6.63;;;;;;;16.43;77.53;93213.69;5068298;28;20548;-76
2022/06/10 06:59:31;;;;;;;10.90;7.68;;;;;;;16.47;77.21;93214.50;5066501;28;20138;-76
2022/06/10 07:01:56;;;;;;;11.82;7.13;;;;;;;16.60;77.19;93218.50;5065889;28;20406;-76
2022/06/10 07:04:22;;;;;;;9.95;6.68;;;;;;;16.36;77.44;93197.47;5067179;28;20040;-76
2022/06/10 07:06:47;;;;;;;11.02;7.07;;;;;;;16.36;77.57;93214.34;5065900;28;20346;-75
2022/06/10 07:09:13;;;;;;;10.02;7.57;;;;;;;16.71;76.63;93200.59;5066307;28;20029;-76
2022/06/10 07:11:39;;;;;;;9.30;7.13;;;;;;;17.07;75.83;93215.97;5064882;28;20036;-76
2022/06/10 07:14:05;;;;;;;9.75;6.30;;;;;;;17.02;75.64;93212.84;5046102;28;20059;-76
2022/06/10 07:16:30;;;;;;;8.38;6.55;;;;;;;16.96;75.50;93209.72;5052900;28;20036;-75
2022/06/10 07:18:56;;;;;;;10.10;6.75;;;;;;;16.77;74.95;93217.91;5053773;28;20101;-74
2022/06/10 07:21:22;;;;;;;9.38;6.68;;;;;;;16.42;75.86;93217.50;5061680;28;20502;-76
2022/06/10 07:23:49;;;;;;;9.77;6.45;;;;;;;16.18;76.60;93210.63;5055635;28;20598;-75
2022/06/10 07:26:15;;;;;;;10.25;6.63;;;;;;;16.17;77.51;93215.22;5056445;28;20047;-75
2022/06/10 07:28:42;;;;;;;8.65;7.03;;;;;;;16.36;77.13;93214.34;5051719;28;20293;-74
2022/06/10 07:31:07;;;;;;;36.13;32.22;;;;;;;16.43;76.82;93214.44;5049098;28;20063;-75
2022/06/10 07:33:35;;;;;;;9.10;6.88;;;;;;;16.30;77.13;93224.63;5060701;28;20561;-76
2022/06/10 07:36:02;;;;;;;9.02;6.75;;;;;;;16.33;76.78;93230.41;5046939;28;20062;-77
2022/06/10 07:38:27;;;;;;;8.15;6.32;;;;;;;16.54;76.88;93228.78;5035897;28;20032;-74
2022/06/10 07:43:38;;;;;;;9.82;5.78;;;;;;;16.46;76.84;93218.31;5059116;28;20566;-76
2022/06/10 07:46:05;;;;;;;10.98;8.43;;;;;;;16.47;76.97;93219.88;5056155;28;20082;-75
2022/06/10 07:48:31;;;;;;;11.32;6.47;;;;;;;16.28;76.92;93208.06;5061340;28;20275;-74
2022/06/10 07:50:57;;;;;;;11.32;6.35;;;;;;;16.49;77.42;93222.94;5060611;28;20056;-76
2022/06/10 07:53:25;;;;;;;9.07;6.78;;;;;;;16.58;77.57;93212.69;5060363;28;20070;-73
2022/06/10 07:55:51;;;;;;;8.88;6.82;;;;;;;16.80;76.83;93232.53;5056060;28;20024;-75
2022/06/10 07:58:18;;;;;;;7.95;6.40;;;;;;;17.00;76.00;93237.41;5054925;28;20619;-76
2022/06/10 08:00:43;;;;;;;7.38;6.00;;;;;;;16.80;76.64;93232.53;5057356;28;20051;-74
2022/06/10 08:03:09;;;;;;;7.88;5.78;;;;;;;16.71;76.70;93222.09;5058590;28;20028;-75
2022/06/10 08:05:36;;;;;;;9.60;6.85;;;;;;;16.75;76.57;93222.91;5053624;28;20485;-76
2022/06/10 08:08:02;;;;;;;8.40;6.03;;;;;;;16.73;76.19;93201.00;5050736;28;20627;-75
2022/06/10 08:10:31;;;;;;;16.90;6.13;;;;;;;16.78;76.35;93230.22;5039057;28;20047;-75
2022/06/10 08:12:57;;;;;;;11.52;6.25;;;;;;;16.86;76.22;93242.59;5051651;28;20404;-76
2022/06/10 08:15:24;;;;;;;11.55;7.28;;;;;;;16.90;76.78;93243.41;5061762;28;20853;-75
2022/06/10 08:17:50;;;;;;;7.63;5.88;;;;;;;16.97;75.99;93234.66;5062094;28;20508;-77
2022/06/10 08:23:30;;;;;;;9.10;6.10;;;;;;;16.89;75.25;93241.88;5062608;28;20055;-76
2022/06/10 08:25:58;;;;;;;9.55;6.22;;;;;;;16.95;75.41;93245.00;5062433;28;20040;-76
2022/06/10 08:28:25;;;;;;;9.57;5.68;;;;;;;17.13;74.49;93246.78;5060472;28;20040;-76
2022/06/10 08:30:50;;;;;;;8.23;6.10;;;;;;;17.11;74.69;93246.31;5062255;28;20079;-77
2022/06/10 08:33:16;;;;;;;9.55;5.85;;;;;;;17.26;74.18;93249.22;5059563;28;20140;-75
2022/06/10 08:35:42;;;;;;;8.00;5.55;;;;;;;17.33;74.09;93254.66;5059192;28;20024;-75
2022/06/10 08:38:12;;;;;;;6.68;4.70;;;;;;;17.43;73.65;93246.69;5052773;28;20067;-75
2022/06/10 08:40:58;;;;;;;5.38;4.28;;;;;;;17.64;71.42;93251.50;5058298;28;20048;-76
2022/06/10 08:43:58;;;;;;;7.35;4.80;;;;;;;17.47;70.40;93258.25;5050511;28;20505;-76
2022/06/10 08:47:00;;;;;;;4.63;3.20;;;;;;;17.37;68.57;93248.16;5055708;28;20043;-75
2022/06/10 08:49:37;;;;;;;4.57;3.30;;;;;;;17.44;68.12;93252.84;5051737;28;20052;-76
2022/06/10 08:52:54;;;;;;;6.82;4.45;;;;;;;17.54;68.56;93262.94;5056217;28;20032;-76
2022/06/10 08:55:23;;;;;;;6.95;4.28;;;;;;;17.74;67.28;93255.44;5049700;28;20059;-74
2022/06/10 08:57:50;;;;;;;6.03;3.63;;;;;;;17.86;67.07;93250.53;5058984;28;20087;-76
2022/06/10 09:00:31;;;;;;;5.25;3.80;;;;;;;17.66;67.58;93249.22;5057102;28;20512;-76
2022/06/10 09:03:12;;;;;;;3.88;3.47;;;;;;;17.76;66.68;93253.91;5060492;28;20020;-76
2022/06/10 09:05:49;;;;;;;5.07;3.92;;;;;;;17.99;66.04;93264.53;5058752;28;20037;-76
2022/06/10 09:08:14;;;;;;;7.95;4.10;;;;;;;18.07;64.90;93268.03;5061100;28;20342;-76
2022/06/10 09:11:04;;;;;;;5.35;4.25;;;;;;;18.02;65.19;93251.09;5062771;28;20159;-75
2022/06/10 09:13:45;;;;;;;6.03;4.35;;;;;;;18.27;65.86;93259.34;5063830;28;20060;-75
2022/06/10 09:16:32;;;;;;;8.02;5.40;;;;;;;18.15;66.15;93266.94;5064935;28;20081;-75
2022/06/10 09:19:36;;;;;;;8.75;5.22;;;;;;;18.03;65.75;93266.09;5064448;28;20325;-73
2022/06/10 09:22:15;;;;;;;12.80;7.15;;;;;;;18.29;66.48;93269.72;5064148;28;20028;-74
2022/06/10 09:24:50;;;;;;;9.10;6.10;;;;;;;18.39;65.72;93266.31;5066609;28;20125;-75
2022/06/10 09:27:32;;;;;;;9.15;5.63;;;;;;;18.40;66.37;93257.09;5071345;28;20021;-74
2022/06/10 09:30:03;;;;;;;8.80;6.38;;;;;;;18.22;67.22;93262.38;5070340;28;20399;-74
2022/06/10 09:32:53;;;;;;;8.68;6.60;;;;;;;18.52;66.66;93259.50;5063545;28;20696;-72
2022/06/10 09:35:18;;;;;;;8.20;5.07;;;;;;;18.93;66.24;93267.41;5064922;28;20036;-74
2022/06/10 09:38:09;;;;;;;3.35;2.67;;;;;;;18.86;62.66;93273.56;5060845;28;20603;-74
2022/06/10 09:40:50;;;;;;;4.13;2.55;;;;;;;18.69;60.96;93269.59;5058686;28;20036;-73
2022/06/10 09:43:53;;;;;;;3.58;2.35;;;;;;;19.06;61.09;93272.13;5060940;28;20124;-75
2022/06/10 09:46:26;;;;;;;3.25;2.10;;;;;;;19.50;61.56;93274.59;5061569;28;20040;-74
2022/06/10 09:48:51;;;;;;;2.70;2.08;;;;;;;19.59;61.14;93279.63;5064014;28;20033;-73
2022/06/10 09:51:33;;;;;;;3.35;2.60;;;;;;;19.47;61.90;93286.13;5062697;28;20397;-73
2022/06/10 09:54:22;;;;;;;4.95;2.83;;;;;;;19.64;62.44;93287.34;5061206;28;20298;-74
2022/06/10 09:56:54;;;;;;;6.07;3.78;;;;;;;19.17;64.42;93301.78;5068250;28;20520;-74
2022/06/10 09:59:43;;;;;;;4.72;3.08;;;;;;;19.11;66.02;93284.47;5062132;28;20039;-73
2022/06/10 10:02:41;;;;;;;6.43;2.75;;;;;;;19.40;64.26;93321.16;5061057;28;22166;-74
2022/06/10 10:05:41;;;;;;;3.92;2.97;;;;;;;19.38;63.96;93330.75;5063786;28;20036;-74
2022/06/10 10:08:16;;;;;;;3.13;2.38;;;;;;;19.15;65.46;93318.34;5062691;27;20062;-74
2022/06/10 10:11:02;;;;;;;4.40;2.38;;;;;;;18.77;67.00;93324.31;5054246;28;20628;-77
2022/06/10 10:13:48;;;;;;;4.78;2.63;;;;;;;18.89;66.51;93327.47;5063151;28;20043;-73
2022/06/10 10:16:19;;;;;;;3.30;2.55;;;;;;;18.97;66.35;93324.81;5039857;28;20046;-74
2022/06/10 10:19:05;;;;;;;3.72;2.88;;;;;;;19.03;64.80;93304.41;5060162;28;20101;-74
2022/06/10 10:21:56;;;;;;;3.35;2.50;;;;;;;19.18;64.04;93322.22;5068614;28;20036;-72
2022/06/10 10:24:24;;;;;;;5.85;2.67;;;;;;;18.81;64.75;93298.16;5062268;28;20044;-74
2022/06/10 10:26:51;;;;;;;6.20;3.28;;;;;;;19.16;64.20;93324.53;5063553;28;20020;-74
2022/06/10 10:29:24;;;;;;;5.43;3.30;;;;;;;19.09;64.60;93319.09;5064174;27;20521;-74
2022/06/10 10:31:53;;;;;;;3.92;3.08;;;;;;;19.01;62.86;93322.91;5061619;28;20055;-73
2022/06/10 10:34:22;;;;;;;3.85;2.95;;;;;;;18.85;63.19;93320.50;5059567;28;20050;-74
2022/06/10 10:36:55;;;;;;;4.03;3.17;;;;;;;18.56;63.60;93303.38;5063233;27;20047;-74
2022/06/10 10:39:32;;;;;;;3.75;3.25;;;;;;;18.75;63.95;93313.91;5064537;28;20076;-74
2022/06/10 10:42:02;;;;;;;4.00;2.95;;;;;;;18.53;64.78;93285.25;5064623;28;20762;-73
2022/06/10 10:44:38;;;;;;;3.85;3.20;;;;;;;18.71;64.14;93325.81;5038377;28;20044;-73
2022/06/10 10:47:09;;;;;;;4.53;3.22;;;;;;;18.72;65.05;93317.38;5057875;28;20553;-76
2022/06/10 10:49:39;;;;;;;8.95;4.55;;;;;;;18.07;69.16;93306.47;5059773;28;20472;-76
2022/06/10 10:52:27;;;;;;;5.97;4.20;;;;;;;18.03;70.73;93293.00;5062502;28;20365;-75
2022/06/10 10:54:56;;;;;;;8.90;4.78;;;;;;;18.32;70.93;93325.50;5063947;28;20086;-76
2022/06/10 10:57:26;;;;;;;6.85;5.28;;;;;;;18.59;69.64;93304.53;5062217;28;20040;-74
2022/06/10 11:00:04;;;;;;;6.38;4.03;;;;;;;18.81;68.01;93290.88;5060461;28;20047;-74
2022/06/10 11:02:37;;;;;;;5.38;3.88;;;;;;;18.88;66.00;93269.34;5049273;28;20471;-74
2022/06/10 11:05:23;;;;;;;4.20;3.50;;;;;;;19.25;65.48;93300.69;5057378;28;20139;-74
2022/06/10 11:08:12;;;;;;;6.97;6.30;;;;;;;18.75;66.63;93227.72;5058526;28;20147;-74
2022/06/10 11:22:04;;;;;;;6.03;3.55;;;;;;;19.08;65.29;93306.75;5055856;27;21242;-73
2022/06/10 11:24:41;;;;;;;4.68;4.00;;;;;;;19.16;63.82;93303.75;5021750;28;20133;-73
2022/06/10 11:27:23;;;;;;;5.07;3.85;;;;;;;19.20;65.15;93288.34;5053784;28;20412;-74
2022/06/10 11:30:02;;;;;;;5.82;3.83;;;;;;;18.92;66.67;93298.22;5051412;28;20025;-73
2022/06/10 11:32:43;;;;;;;5.55;4.15;;;;;;;19.13;66.87;93303.69;5040159;28;20052;-73
2022/06/10 11:35:33;;;;;;;5.07;3.88;;;;;;;19.44;67.08;93297.66;5038026;28;20702;-72
2022/06/10 11:38:18;;;;;;;5.53;3.63;;;;;;;19.68;66.21;93307.78;5039011;28;20277;-73
2022/06/10 11:40:46;;;;;;;7.18;4.50;;;;;;;19.78;66.64;93300.09;5037433;28;20428;-73
2022/06/10 11:43:27;;;;;;;5.90;4.13;;;;;;;19.99;65.15;93292.78;5039561;28;20042;-73
2022/06/10 11:45:59;;;;;;;6.47;4.30;;;;;;;19.85;65.21;93292.75;5036304;28;20033;-73
2022/06/10 11:48:36;;;;;;;5.18;4.10;;;;;;;19.89;65.52;93290.09;5039305;28;20419;-74
2022/06/10 11:51:06;;;;;;;6.50;4.68;;;;;;;19.88;66.68;93291.22;5043087;28;20036;-74
2022/06/10 11:53:56;;;;;;;4.97;3.97;;;;;;;19.78;65.35;93295.47;5050806;28;20718;-73
2022/06/10 11:59:45;;;;;;;8.05;4.75;;;;;;;18.43;67.78;93294.06;5039000;28;20415;-74
2022/06/10 12:02:19;;;;;;;6.07;4.20;;;;;;;19.02;66.80;93297.50;5036075;28;20041;-73
2022/06/10 12:04:57;;;;;;;;;;;;;;;18.94;67.55;93287.84;5043376;28;20033;-74
2022/06/10 12:07:27;;;;;;;6.95;5.13;;;;;;;18.53;68.25;93257.59;5047750;28;19932;-73
2022/06/10 12:09:57;;;;;;;7.03;5.57;;;;;;;18.76;68.45;93280.44;5043269;28;20554;-73
2022/06/10 12:12:31;;;;;;;6.43;4.70;;;;;;;18.88;67.89;93288.19;5040671;28;20048;-73
2022/06/10 12:14:59;;;;;;;8.38;5.45;;;;;;;18.98;68.57;93281.31;5049947;28;20033;-73
2022/06/10 12:17:39;;;;;;;7.85;6.07;;;;;;;18.98;67.11;93253.59;5020529;28;20453;-74
2022/06/10 12:20:23;;;;;;;7.45;5.55;;;;;;;18.81;69.42;93255.06;5025772;28;20593;-73
2022/06/10 12:22:48;;;;;;;5.70;4.30;;;;;;;18.66;68.05;93261.50;5010788;28;20078;-75
2022/06/10 12:25:18;;;;;;;6.75;4.93;;;;;;;18.76;67.32;93269.69;5011971;28;20471;-73
2022/06/10 12:27:55;;;;;;;5.60;4.30;;;;;;;18.90;67.49;93258.19;5011496;28;20544;-73